sensor_id;sensor_type;location;lat;lon;timestamp;P1;durP1;ratioP1;P2;durP2;ratioP2
72949;SDS011;64868;45.710;9.590;2023-04-01T00:01:52;7.82;;;3.30;;
72949;SDS011;64868;45.710;9.590;2023-04-01T00:04:25;8.02;;;3.67;;
72949;SDS011;64868;45.710;9.590;2023-04-01T00:06:53;7.70;;;3.60;;
72949;SDS011;64868;45.710;9.590;2023-04-01T00:11:53;7.68;;;3.15;;
72949;SDS011;64868;45.710;9.590;2023-04-01T00:14:25;7.00;;;2.92;;
72949;SDS011;64868;45.710;9.590;2023-04-01T00:16:58;7.20;;;3.65;;
72949;SDS011;64868;45.710;9.590;2023-04-01T00:19:28;7.05;;;3.22;;
72949;SDS011;64868;45.710;9.590;2023-04-01T00:22:01;7.97;;;3.50;;
72949;SDS011;64868;45.710;9.590;2023-04-01T00:24:31;8.25;;;4.15;;
72949;SDS011;64868;45.710;9.590;2023-04-01T00:27:04;7.60;;;4.13;;
72949;SDS011;64868;45.710;9.590;2023-04-01T00:29:34;11.27;;;4.38;;
72949;SDS011;64868;45.710;9.590;2023-04-01T00:32:07;7.90;;;3.90;;
72949;SDS011;64868;45.710;9.590;2023-04-01T00:34:39;9.30;;;4.32;;
72949;SDS011;64868;45.710;9.590;2023-04-01T00:37:12;7.68;;;4.05;;
72949;SDS011;64868;45.710;9.590;2023-04-01T00:39:42;8.85;;;4.00;;
72949;SDS011;64868;45.710;9.590;2023-04-01T00:42:12;6.75;;;3.40;;
72949;SDS011;64868;45.710;9.590;2023-04-01T00:44:46;7.32;;;3.42;;
72949;SDS011;64868;45.710;9.590;2023-04-01T00:47:22;6.50;;;3.55;;
72949;SDS011;64868;45.710;9.590;2023-04-01T00:49:57;7.40;;;3.67;;
72949;SDS011;64868;45.710;9.590;2023-04-01T00:52:27;6.72;;;3.63;;
72949;SDS011;64868;45.710;9.590;2023-04-01T00:55:00;8.38;;;3.83;;
72949;SDS011;64868;45.710;9.590;2023-04-01T00:57:39;10.27;;;5.25;;
72949;SDS011;64868;45.710;9.590;2023-04-01T01:00:14;9.30;;;4.90;;
72949;SDS011;64868;45.710;9.590;2023-04-01T01:02:47;8.68;;;4.35;;
72949;SDS011;64868;45.710;9.590;2023-04-01T01:05:22;8.38;;;4.18;;
72949;SDS011;64868;45.710;9.590;2023-04-01T01:08:05;7.25;;;3.70;;
72949;SDS011;64868;45.710;9.590;2023-04-01T01:10:47;6.43;;;2.88;;
72949;SDS011;64868;45.710;9.590;2023-04-01T01:16:14;6.97;;;2.85;;
72949;SDS011;64868;45.710;9.590;2023-04-01T01:18:53;7.22;;;2.72;;
72949;SDS011;64868;45.710;9.590;2023-04-01T01:27:22;7.72;;;2.97;;
72949;SDS011;64868;45.710;9.590;2023-04-01T01:32:46;6.00;;;2.80;;
72949;SDS011;64868;45.710;9.590;2023-04-01T01:38:17;6.38;;;3.08;;
72949;SDS011;64868;45.710;9.590;2023-04-01T01:40:51;9.80;;;3.70;;
72949;SDS011;64868;45.710;9.590;2023-04-01T01:43:25;7.20;;;3.00;;
72949;SDS011;64868;45.710;9.590;2023-04-01T01:46:22;6.93;;;2.80;;
72949;SDS011;64868;45.710;9.590;2023-04-01T01:48:56;5.95;;;2.50;;
72949;SDS011;64868;45.710;9.590;2023-04-01T01:51:34;5.28;;;2.38;;
72949;SDS011;64868;45.710;9.590;2023-04-01T01:54:07;5.07;;;1.98;;
72949;SDS011;64868;45.710;9.590;2023-04-01T01:56:45;5.47;;;2.03;;
72949;SDS011;64868;45.710;9.590;2023-04-01T01:59:19;4.80;;;1.90;;
72949;SDS011;64868;45.710;9.590;2023-04-01T02:01:53;5.43;;;2.00;;
72949;SDS011;64868;45.710;9.590;2023-04-01T02:04:26;4.72;;;1.85;;
72949;SDS011;64868;45.710;9.590;2023-04-01T02:06:55;5.32;;;1.98;;
72949;SDS011;64868;45.710;9.590;2023-04-01T02:09:28;5.97;;;1.75;;
72949;SDS011;64868;45.710;9.590;2023-04-01T02:12:01;4.65;;;1.83;;
72949;SDS011;64868;45.710;9.590;2023-04-01T02:17:15;5.55;;;1.95;;
72949;SDS011;64868;45.710;9.590;2023-04-01T02:19:52;5.03;;;1.80;;
72949;SDS011;64868;45.710;9.590;2023-04-01T02:22:26;6.18;;;2.22;;
72949;SDS011;64868;45.710;9.590;2023-04-01T02:25:00;5.68;;;2.00;;
72949;SDS011;64868;45.710;9.590;2023-04-01T02:27:34;4.65;;;1.70;;
72949;SDS011;64868;45.710;9.590;2023-04-01T02:30:06;5.85;;;2.10;;
72949;SDS011;64868;45.710;9.590;2023-04-01T02:32:38;5.78;;;2.33;;
72949;SDS011;64868;45.710;9.590;2023-04-01T02:35:10;4.50;;;1.65;;
72949;SDS011;64868;45.710;9.590;2023-04-01T02:37:42;6.18;;;2.20;;
72949;SDS011;64868;45.710;9.590;2023-04-01T02:40:15;4.93;;;2.15;;
72949;SDS011;64868;45.710;9.590;2023-04-01T02:42:46;6.13;;;2.22;;
72949;SDS011;64868;45.710;9.590;2023-04-01T02:45:17;5.32;;;2.00;;
72949;SDS011;64868;45.710;9.590;2023-04-01T02:47:50;6.47;;;1.63;;
72949;SDS011;64868;45.710;9.590;2023-04-01T02:50:20;5.80;;;1.58;;
72949;SDS011;64868;45.710;9.590;2023-04-01T02:52:55;4.88;;;1.80;;
72949;SDS011;64868;45.710;9.590;2023-04-01T02:55:28;4.82;;;1.63;;
72949;SDS011;64868;45.710;9.590;2023-04-01T02:57:58;5.45;;;1.80;;
72949;SDS011;64868;45.710;9.590;2023-04-01T03:00:29;4.90;;;1.65;;
72949;SDS011;64868;45.710;9.590;2023-04-01T03:02:58;4.72;;;1.70;;
72949;SDS011;64868;45.710;9.590;2023-04-01T03:05:31;4.47;;;1.50;;
72949;SDS011;64868;45.710;9.590;2023-04-01T03:08:04;4.57;;;1.70;;
72949;SDS011;64868;45.710;9.590;2023-04-01T03:10:32;5.25;;;1.52;;
72949;SDS011;64868;45.710;9.590;2023-04-01T03:13:03;4.28;;;1.40;;
72949;SDS011;64868;45.710;9.590;2023-04-01T03:15:34;4.88;;;1.33;;
72949;SDS011;64868;45.710;9.590;2023-04-01T03:18:07;4.97;;;1.60;;
72949;SDS011;64868;45.710;9.590;2023-04-01T03:20:37;4.40;;;1.50;;
72949;SDS011;64868;45.710;9.590;2023-04-01T03:23:07;4.00;;;1.50;;
72949;SDS011;64868;45.710;9.590;2023-04-01T03:25:40;4.30;;;1.40;;
72949;SDS011;64868;45.710;9.590;2023-04-01T03:28:10;5.80;;;1.50;;
72949;SDS011;64868;45.710;9.590;2023-04-01T03:30:40;4.47;;;1.30;;
72949;SDS011;64868;45.710;9.590;2023-04-01T03:33:13;5.28;;;1.23;;
72949;SDS011;64868;45.710;9.590;2023-04-01T03:35:45;4.55;;;1.50;;
72949;SDS011;64868;45.710;9.590;2023-04-01T03:38:19;4.75;;;1.40;;
72949;SDS011;64868;45.710;9.590;2023-04-01T03:40:51;4.25;;;1.35;;
72949;SDS011;64868;45.710;9.590;2023-04-01T03:43:21;3.45;;;1.20;;
72949;SDS011;64868;45.710;9.590;2023-04-01T03:45:52;3.92;;;1.27;;
72949;SDS011;64868;45.710;9.590;2023-04-01T03:48:22;3.92;;;0.90;;
72949;SDS011;64868;45.710;9.590;2023-04-01T03:50:54;4.10;;;1.33;;
72949;SDS011;64868;45.710;9.590;2023-04-01T03:53:27;3.90;;;1.40;;
72949;SDS011;64868;45.710;9.590;2023-04-01T03:55:53;3.90;;;1.05;;
72949;SDS011;64868;45.710;9.590;2023-04-01T03:58:23;3.47;;;0.95;;
72949;SDS011;64868;45.710;9.590;2023-04-01T04:03:23;3.00;;;1.00;;
72949;SDS011;64868;45.710;9.590;2023-04-01T04:05:51;4.05;;;1.20;;
72949;SDS011;64868;45.710;9.590;2023-04-01T04:08:23;4.15;;;1.25;;
72949;SDS011;64868;45.710;9.590;2023-04-01T04:10:56;3.17;;;0.90;;
72949;SDS011;64868;45.710;9.590;2023-04-01T04:13:26;2.75;;;0.90;;
72949;SDS011;64868;45.710;9.590;2023-04-01T04:15:56;4.07;;;1.15;;
72949;SDS011;64868;45.710;9.590;2023-04-01T04:18:26;3.65;;;1.00;;
72949;SDS011;64868;45.710;9.590;2023-04-01T04:20:54;4.78;;;0.77;;
72949;SDS011;64868;45.710;9.590;2023-04-01T04:23:24;3.60;;;1.08;;
72949;SDS011;64868;45.710;9.590;2023-04-01T04:26:00;3.53;;;1.00;;
72949;SDS011;64868;45.710;9.590;2023-04-01T04:31:03;2.97;;;0.88;;
72949;SDS011;64868;45.710;9.590;2023-04-01T04:33:34;3.50;;;0.93;;
72949;SDS011;64868;45.710;9.590;2023-04-01T04:36:04;3.60;;;1.10;;
72949;SDS011;64868;45.710;9.590;2023-04-01T04:38:37;3.92;;;1.15;;
72949;SDS011;64868;45.710;9.590;2023-04-01T04:41:12;3.85;;;1.00;;
72949;SDS011;64868;45.710;9.590;2023-04-01T04:43:47;3.60;;;1.17;;
72949;SDS011;64868;45.710;9.590;2023-04-01T04:46:18;5.03;;;1.17;;
72949;SDS011;64868;45.710;9.590;2023-04-01T04:48:50;5.43;;;1.30;;
72949;SDS011;64868;45.710;9.590;2023-04-01T04:51:18;3.13;;;1.05;;
72949;SDS011;64868;45.710;9.590;2023-04-01T04:53:49;4.55;;;0.90;;
72949;SDS011;64868;45.710;9.590;2023-04-01T04:56:20;3.92;;;0.90;;
72949;SDS011;64868;45.710;9.590;2023-04-01T04:58:52;4.78;;;1.00;;
72949;SDS011;64868;45.710;9.590;2023-04-01T05:01:25;3.92;;;1.02;;
72949;SDS011;64868;45.710;9.590;2023-04-01T05:03:57;2.83;;;1.00;;
72949;SDS011;64868;45.710;9.590;2023-04-01T05:06:30;3.78;;;0.80;;
72949;SDS011;64868;45.710;9.590;2023-04-01T05:09:03;3.38;;;0.93;;
72949;SDS011;64868;45.710;9.590;2023-04-01T05:11:35;2.92;;;0.90;;
72949;SDS011;64868;45.710;9.590;2023-04-01T05:14:11;4.70;;;1.02;;
72949;SDS011;64868;45.710;9.590;2023-04-01T05:16:43;2.88;;;0.85;;
72949;SDS011;64868;45.710;9.590;2023-04-01T05:19:16;3.70;;;0.90;;
72949;SDS011;64868;45.710;9.590;2023-04-01T05:21:49;3.20;;;0.75;;
72949;SDS011;64868;45.710;9.590;2023-04-01T05:24:21;3.25;;;0.82;;
72949;SDS011;64868;45.710;9.590;2023-04-01T05:26:54;3.88;;;1.10;;
72949;SDS011;64868;45.710;9.590;2023-04-01T05:29:24;3.40;;;0.73;;
72949;SDS011;64868;45.710;9.590;2023-04-01T05:31:57;3.78;;;0.95;;
72949;SDS011;64868;45.710;9.590;2023-04-01T05:34:29;4.00;;;1.38;;
72949;SDS011;64868;45.710;9.590;2023-04-01T05:37:02;4.93;;;1.00;;
72949;SDS011;64868;45.710;9.590;2023-04-01T05:39:36;4.65;;;0.82;;
72949;SDS011;64868;45.710;9.590;2023-04-01T05:42:07;1.88;;;0.60;;
72949;SDS011;64868;45.710;9.590;2023-04-01T05:44:39;4.10;;;1.20;;
72949;SDS011;64868;45.710;9.590;2023-04-01T05:47:12;5.60;;;0.80;;
72949;SDS011;64868;45.710;9.590;2023-04-01T05:49:42;3.20;;;0.90;;
72949;SDS011;64868;45.710;9.590;2023-04-01T05:52:15;3.17;;;0.80;;
72949;SDS011;64868;45.710;9.590;2023-04-01T05:54:48;3.50;;;0.82;;
72949;SDS011;64868;45.710;9.590;2023-04-01T05:57:15;2.80;;;0.80;;
72949;SDS011;64868;45.710;9.590;2023-04-01T05:59:48;4.15;;;1.00;;
72949;SDS011;64868;45.710;9.590;2023-04-01T06:02:18;4.47;;;1.38;;
72949;SDS011;64868;45.710;9.590;2023-04-01T06:04:48;3.60;;;0.90;;
72949;SDS011;64868;45.710;9.590;2023-04-01T06:07:24;2.85;;;1.00;;
72949;SDS011;64868;45.710;9.590;2023-04-01T06:09:57;3.63;;;0.70;;
72949;SDS011;64868;45.710;9.590;2023-04-01T06:12:30;3.75;;;0.75;;
72949;SDS011;64868;45.710;9.590;2023-04-01T06:20:47;6.45;;;1.00;;
72949;SDS011;64868;45.710;9.590;2023-04-01T06:26:14;2.58;;;0.80;;
72949;SDS011;64868;45.710;9.590;2023-04-01T06:29:05;2.70;;;0.80;;
72949;SDS011;64868;45.710;9.590;2023-04-01T06:32:04;4.38;;;0.63;;
72949;SDS011;64868;45.710;9.590;2023-04-01T06:38:13;3.67;;;0.80;;
72949;SDS011;64868;45.710;9.590;2023-04-01T06:41:14;3.03;;;0.90;;
72949;SDS011;64868;45.710;9.590;2023-04-01T06:43:55;2.13;;;0.68;;
72949;SDS011;64868;45.710;9.590;2023-04-01T06:46:47;3.63;;;0.90;;
72949;SDS011;64868;45.710;9.590;2023-04-01T06:52:20;6.00;;;0.90;;
72949;SDS011;64868;45.710;9.590;2023-04-01T06:57:57;5.72;;;0.80;;
72949;SDS011;64868;45.710;9.590;2023-04-01T07:00:46;3.05;;;0.75;;
72949;SDS011;64868;45.710;9.590;2023-04-01T07:06:35;3.50;;;0.50;;
72949;SDS011;64868;45.710;9.590;2023-04-01T07:09:13;3.63;;;1.00;;
72949;SDS011;64868;45.710;9.590;2023-04-01T07:11:47;2.55;;;0.70;;
72949;SDS011;64868;45.710;9.590;2023-04-01T07:14:22;2.28;;;0.80;;
72949;SDS011;64868;45.710;9.590;2023-04-01T07:16:56;3.03;;;0.90;;
72949;SDS011;64868;45.710;9.590;2023-04-01T07:19:42;4.72;;;1.00;;
72949;SDS011;64868;45.710;9.590;2023-04-01T07:22:35;3.03;;;0.90;;
72949;SDS011;64868;45.710;9.590;2023-04-01T07:25:14;5.78;;;1.10;;
72949;SDS011;64868;45.710;9.590;2023-04-01T07:27:50;5.93;;;1.33;;
72949;SDS011;64868;45.710;9.590;2023-04-01T07:30:26;4.78;;;1.13;;
72949;SDS011;64868;45.710;9.590;2023-04-01T07:33:29;5.45;;;1.20;;
72949;SDS011;64868;45.710;9.590;2023-04-01T07:36:03;3.63;;;1.10;;
72949;SDS011;64868;45.710;9.590;2023-04-01T07:42:16;3.38;;;0.90;;
72949;SDS011;64868;45.710;9.590;2023-04-01T07:47:53;3.15;;;0.90;;
72949;SDS011;64868;45.710;9.590;2023-04-01T07:53:41;2.83;;;1.05;;
72949;SDS011;64868;45.710;9.590;2023-04-01T07:56:18;3.20;;;0.80;;
72949;SDS011;64868;45.710;9.590;2023-04-01T07:59:53;3.95;;;0.88;;
72949;SDS011;64868;45.710;9.590;2023-04-01T08:02:23;2.30;;;0.55;;
72949;SDS011;64868;45.710;9.590;2023-04-01T08:05:03;3.38;;;0.98;;
72949;SDS011;64868;45.710;9.590;2023-04-01T08:07:39;2.95;;;0.70;;
72949;SDS011;64868;45.710;9.590;2023-04-01T08:10:13;3.00;;;0.85;;
72949;SDS011;64868;45.710;9.590;2023-04-01T08:15:49;2.72;;;0.70;;
72949;SDS011;64868;45.710;9.590;2023-04-01T08:24:02;1.88;;;0.60;;
72949;SDS011;64868;45.710;9.590;2023-04-01T08:26:41;3.28;;;0.70;;
72949;SDS011;64868;45.710;9.590;2023-04-01T08:30:01;4.00;;;1.00;;
72949;SDS011;64868;45.710;9.590;2023-04-01T08:32:20;3.00;;;0.90;;
72949;SDS011;64868;45.710;9.590;2023-04-01T08:35:02;3.10;;;1.00;;
72949;SDS011;64868;45.710;9.590;2023-04-01T08:37:38;2.40;;;0.60;;
72949;SDS011;64868;45.710;9.590;2023-04-01T08:42:54;3.50;;;0.70;;
72949;SDS011;64868;45.710;9.590;2023-04-01T08:51:14;6.05;;;1.42;;
72949;SDS011;64868;45.710;9.590;2023-04-01T08:57:28;4.10;;;1.20;;
72949;SDS011;64868;45.710;9.590;2023-04-01T09:00:20;4.88;;;1.70;;
72949;SDS011;64868;45.710;9.590;2023-04-01T09:03:10;5.45;;;1.50;;
72949;SDS011;64868;45.710;9.590;2023-04-01T09:09:02;4.68;;;1.10;;
72949;SDS011;64868;45.710;9.590;2023-04-01T09:23:20;6.05;;;1.50;;
72949;SDS011;64868;45.710;9.590;2023-04-01T09:29:05;3.63;;;1.05;;
72949;SDS011;64868;45.710;9.590;2023-04-01T09:32:20;11.48;;;1.48;;
72949;SDS011;64868;45.710;9.590;2023-04-01T09:38:28;4.20;;;0.90;;
72949;SDS011;64868;45.710;9.590;2023-04-01T09:41:00;3.47;;;1.00;;
72949;SDS011;64868;45.710;9.590;2023-04-01T09:52:38;4.88;;;1.10;;
72949;SDS011;64868;45.710;9.590;2023-04-01T10:03:59;4.03;;;1.38;;
72949;SDS011;64868;45.710;9.590;2023-04-01T10:12:56;5.30;;;1.58;;
72949;SDS011;64868;45.710;9.590;2023-04-01T10:18:28;8.88;;;1.83;;
72949;SDS011;64868;45.710;9.590;2023-04-01T10:26:42;7.15;;;2.50;;
72949;SDS011;64868;45.710;9.590;2023-04-01T10:35:41;6.10;;;2.17;;
72949;SDS011;64868;45.710;9.590;2023-04-01T11:01:22;4.47;;;1.25;;
72949;SDS011;64868;45.710;9.590;2023-04-01T11:12:58;5.93;;;1.52;;
72949;SDS011;64868;45.710;9.590;2023-04-01T11:24:41;1.58;;;0.47;;
72949;SDS011;64868;45.710;9.590;2023-04-01T11:36:00;2.63;;;0.47;;
72949;SDS011;64868;45.710;9.590;2023-04-01T11:38:45;0.90;;;0.40;;
72949;SDS011;64868;45.710;9.590;2023-04-01T11:41:41;3.00;;;0.60;;
72949;SDS011;64868;45.710;9.590;2023-04-01T11:44:16;2.03;;;0.40;;
72949;SDS011;64868;45.710;9.590;2023-04-01T11:50:03;3.03;;;0.60;;
72949;SDS011;64868;45.710;9.590;2023-04-01T11:52:56;3.53;;;0.70;;
72949;SDS011;64868;45.710;9.590;2023-04-01T12:07:45;3.05;;;0.57;;
72949;SDS011;64868;45.710;9.590;2023-04-01T12:10:25;2.53;;;0.70;;
72949;SDS011;64868;45.710;9.590;2023-04-01T12:13:09;7.28;;;0.73;;
72949;SDS011;64868;45.710;9.590;2023-04-01T12:18:27;3.63;;;0.60;;
72949;SDS011;64868;45.710;9.590;2023-04-01T12:21:32;4.90;;;0.90;;
72949;SDS011;64868;45.710;9.590;2023-04-01T12:33:10;2.30;;;0.55;;
72949;SDS011;64868;45.710;9.590;2023-04-01T12:38:51;2.47;;;0.60;;
72949;SDS011;64868;45.710;9.590;2023-04-01T12:44:50;1.83;;;0.50;;
72949;SDS011;64868;45.710;9.590;2023-04-01T12:47:38;1.65;;;0.22;;
72949;SDS011;64868;45.710;9.590;2023-04-01T12:50:29;2.63;;;0.60;;
72949;SDS011;64868;45.710;9.590;2023-04-01T12:55:49;5.85;;;0.73;;
72949;SDS011;64868;45.710;9.590;2023-04-01T12:58:27;1.75;;;0.50;;
72949;SDS011;64868;45.710;9.590;2023-04-01T13:04:05;1.30;;;0.55;;
72949;SDS011;64868;45.710;9.590;2023-04-01T13:07:18;4.63;;;0.70;;
72949;SDS011;64868;45.710;9.590;2023-04-01T13:15:46;1.38;;;0.50;;
72949;SDS011;64868;45.710;9.590;2023-04-01T13:18:29;4.05;;;0.70;;
72949;SDS011;64868;45.710;9.590;2023-04-01T13:21:11;1.27;;;0.40;;
72949;SDS011;64868;45.710;9.590;2023-04-01T13:23:50;1.58;;;0.50;;
72949;SDS011;64868;45.710;9.590;2023-04-01T13:26:50;4.75;;;0.55;;
72949;SDS011;64868;45.710;9.590;2023-04-01T13:30:01;1.35;;;0.40;;
72949;SDS011;64868;45.710;9.590;2023-04-01T13:35:28;1.83;;;0.40;;
72949;SDS011;64868;45.710;9.590;2023-04-01T13:44:20;11.50;;;0.93;;
72949;SDS011;64868;45.710;9.590;2023-04-01T13:47:08;2.17;;;0.50;;
72949;SDS011;64868;45.710;9.590;2023-04-01T13:49:52;1.17;;;0.40;;
72949;SDS011;64868;45.710;9.590;2023-04-01T13:55:57;2.30;;;0.30;;
72949;SDS011;64868;45.710;9.590;2023-04-01T13:59:32;3.35;;;0.40;;
72949;SDS011;64868;45.710;9.590;2023-04-01T14:07:14;1.40;;;0.30;;
72949;SDS011;64868;45.710;9.590;2023-04-01T14:09:59;4.45;;;0.55;;
72949;SDS011;64868;45.710;9.590;2023-04-01T14:12:38;4.13;;;0.60;;
72949;SDS011;64868;45.710;9.590;2023-04-01T14:15:34;2.47;;;0.60;;
72949;SDS011;64868;45.710;9.590;2023-04-01T14:20:57;3.03;;;0.50;;
72949;SDS011;64868;45.710;9.590;2023-04-01T14:23:52;1.10;;;0.40;;
72949;SDS011;64868;45.710;9.590;2023-04-01T14:30:05;1.33;;;0.20;;
72949;SDS011;64868;45.710;9.590;2023-04-01T14:39:01;1.60;;;0.50;;
72949;SDS011;64868;45.710;9.590;2023-04-01T14:47:47;1.10;;;0.40;;
72949;SDS011;64868;45.710;9.590;2023-04-01T14:50:23;1.27;;;0.40;;
72949;SDS011;64868;45.710;9.590;2023-04-01T14:52:59;1.15;;;0.40;;
72949;SDS011;64868;45.710;9.590;2023-04-01T14:58:19;1.05;;;0.40;;
72949;SDS011;64868;45.710;9.590;2023-04-01T15:00:53;1.35;;;0.40;;
72949;SDS011;64868;45.710;9.590;2023-04-01T15:03:28;1.48;;;0.40;;
72949;SDS011;64868;45.710;9.590;2023-04-01T15:09:07;1.55;;;0.50;;
72949;SDS011;64868;45.710;9.590;2023-04-01T15:23:21;7.35;;;0.70;;
72949;SDS011;64868;45.710;9.590;2023-04-01T15:31:47;6.10;;;0.60;;
72949;SDS011;64868;45.710;9.590;2023-04-01T15:34:48;2.17;;;0.50;;
72949;SDS011;64868;45.710;9.590;2023-04-01T15:43:07;1.27;;;0.30;;
72949;SDS011;64868;45.710;9.590;2023-04-01T15:56:49;3.65;;;1.25;;
72949;SDS011;64868;45.710;9.590;2023-04-01T15:59:35;3.92;;;1.10;;
72949;SDS011;64868;45.710;9.590;2023-04-01T16:02:47;8.18;;;2.20;;
72949;SDS011;64868;45.710;9.590;2023-04-01T16:08:33;6.13;;;2.00;;
72949;SDS011;64868;45.710;9.590;2023-04-01T16:25:43;4.07;;;0.80;;
72949;SDS011;64868;45.710;9.590;2023-04-01T16:31:34;16.85;;;1.08;;
72949;SDS011;64868;45.710;9.590;2023-04-01T16:45:43;2.63;;;0.57;;
72949;SDS011;64868;45.710;9.590;2023-04-01T16:48:14;6.63;;;0.77;;
72949;SDS011;64868;45.710;9.590;2023-04-01T16:56:25;2.70;;;0.90;;
72949;SDS011;64868;45.710;9.590;2023-04-01T17:01:45;2.20;;;0.60;;
72949;SDS011;64868;45.710;9.590;2023-04-01T17:08:04;4.55;;;1.30;;
72949;SDS011;64868;45.710;9.590;2023-04-01T17:10:49;5.63;;;2.42;;
72949;SDS011;64868;45.710;9.590;2023-04-01T17:13:39;3.92;;;1.13;;
72949;SDS011;64868;45.710;9.590;2023-04-01T17:27:35;5.28;;;1.73;;
72949;SDS011;64868;45.710;9.590;2023-04-01T17:30:26;4.70;;;1.33;;
72949;SDS011;64868;45.710;9.590;2023-04-01T17:39:14;4.22;;;1.35;;
72949;SDS011;64868;45.710;9.590;2023-04-01T17:45:11;4.45;;;1.00;;
72949;SDS011;64868;45.710;9.590;2023-04-01T17:54:01;5.05;;;1.67;;
72949;SDS011;64868;45.710;9.590;2023-04-01T17:57:00;10.93;;;5.05;;
72949;SDS011;64868;45.710;9.590;2023-04-01T17:59:38;7.18;;;2.95;;
72949;SDS011;64868;45.710;9.590;2023-04-01T18:02:24;5.60;;;2.10;;
72949;SDS011;64868;45.710;9.590;2023-04-01T18:05:05;4.38;;;1.40;;
72949;SDS011;64868;45.710;9.590;2023-04-01T18:16:46;3.97;;;0.90;;
72949;SDS011;64868;45.710;9.590;2023-04-01T18:25:01;4.13;;;1.63;;
72949;SDS011;64868;45.710;9.590;2023-04-01T18:27:42;3.88;;;1.45;;
72949;SDS011;64868;45.710;9.590;2023-04-01T18:30:14;3.85;;;1.40;;
72949;SDS011;64868;45.710;9.590;2023-04-01T18:32:51;4.25;;;1.55;;
72949;SDS011;64868;45.710;9.590;2023-04-01T18:35:27;3.85;;;1.15;;
72949;SDS011;64868;45.710;9.590;2023-04-01T18:38:14;4.25;;;0.95;;
72949;SDS011;64868;45.710;9.590;2023-04-01T18:43:53;4.50;;;1.70;;
72949;SDS011;64868;45.710;9.590;2023-04-01T18:46:46;6.78;;;2.75;;
72949;SDS011;64868;45.710;9.590;2023-04-01T18:49:32;6.10;;;2.40;;
72949;SDS011;64868;45.710;9.590;2023-04-01T18:52:09;5.75;;;2.35;;
72949;SDS011;64868;45.710;9.590;2023-04-01T18:55:14;5.20;;;1.95;;
72949;SDS011;64868;45.710;9.590;2023-04-01T18:57:53;4.57;;;1.67;;
72949;SDS011;64868;45.710;9.590;2023-04-01T19:00:39;4.90;;;1.80;;
72949;SDS011;64868;45.710;9.590;2023-04-01T19:06:32;5.50;;;2.40;;
72949;SDS011;64868;45.710;9.590;2023-04-01T19:09:15;5.72;;;2.05;;
72949;SDS011;64868;45.710;9.590;2023-04-01T19:25:49;5.00;;;1.60;;
72949;SDS011;64868;45.710;9.590;2023-04-01T19:37:26;5.90;;;2.47;;
72949;SDS011;64868;45.710;9.590;2023-04-01T19:40:15;4.90;;;2.15;;
72949;SDS011;64868;45.710;9.590;2023-04-01T19:42:52;5.68;;;2.40;;
72949;SDS011;64868;45.710;9.590;2023-04-01T19:45:38;5.10;;;1.98;;
72949;SDS011;64868;45.710;9.590;2023-04-01T19:48:23;6.43;;;1.65;;
72949;SDS011;64868;45.710;9.590;2023-04-01T19:50:55;8.15;;;2.00;;
72949;SDS011;64868;45.710;9.590;2023-04-01T19:53:34;4.78;;;1.90;;
72949;SDS011;64868;45.710;9.590;2023-04-01T20:01:54;6.03;;;2.53;;
72949;SDS011;64868;45.710;9.590;2023-04-01T20:04:36;6.63;;;3.13;;
72949;SDS011;64868;45.710;9.590;2023-04-01T20:15:40;5.57;;;2.25;;
72949;SDS011;64868;45.710;9.590;2023-04-01T20:20:53;5.15;;;2.10;;
72949;SDS011;64868;45.710;9.590;2023-04-01T20:26:13;6.07;;;2.35;;
72949;SDS011;64868;45.710;9.590;2023-04-01T20:32:09;5.30;;;2.10;;
72949;SDS011;64868;45.710;9.590;2023-04-01T20:35:12;6.10;;;2.70;;
72949;SDS011;64868;45.710;9.590;2023-04-01T20:37:49;4.82;;;1.60;;
72949;SDS011;64868;45.710;9.590;2023-04-01T20:40:37;7.68;;;2.67;;
72949;SDS011;64868;45.710;9.590;2023-04-01T20:46:18;22.33;;;7.68;;
72949;SDS011;64868;45.710;9.590;2023-04-01T20:48:58;17.15;;;7.28;;
72949;SDS011;64868;45.710;9.590;2023-04-01T20:52:29;16.83;;;6.18;;
72949;SDS011;64868;45.710;9.590;2023-04-01T20:55:03;22.80;;;8.00;;
72949;SDS011;64868;45.710;9.590;2023-04-01T20:58:10;13.75;;;6.18;;
72949;SDS011;64868;45.710;9.590;2023-04-01T21:01:02;10.75;;;4.13;;
72949;SDS011;64868;45.710;9.590;2023-04-01T21:03:41;8.90;;;2.75;;
72949;SDS011;64868;45.710;9.590;2023-04-01T21:06:26;6.00;;;2.30;;
72949;SDS011;64868;45.710;9.590;2023-04-01T21:12:32;5.82;;;2.30;;
72949;SDS011;64868;45.710;9.590;2023-04-01T21:15:16;7.05;;;2.50;;
72949;SDS011;64868;45.710;9.590;2023-04-01T21:18:00;6.07;;;2.13;;
72949;SDS011;64868;45.710;9.590;2023-04-01T21:29:35;4.72;;;1.75;;
72949;SDS011;64868;45.710;9.590;2023-04-01T21:35:24;5.10;;;1.75;;
72949;SDS011;64868;45.710;9.590;2023-04-01T21:38:03;7.93;;;2.75;;
72949;SDS011;64868;45.710;9.590;2023-04-01T21:41:02;6.72;;;2.45;;
72949;SDS011;64868;45.710;9.590;2023-04-01T21:43:52;4.65;;;1.70;;
72949;SDS011;64868;45.710;9.590;2023-04-01T22:03:58;4.70;;;1.50;;
72949;SDS011;64868;45.710;9.590;2023-04-01T22:07:00;5.03;;;1.40;;
72949;SDS011;64868;45.710;9.590;2023-04-01T22:12:27;4.75;;;1.40;;
72949;SDS011;64868;45.710;9.590;2023-04-01T22:18:04;4.40;;;1.30;;
72949;SDS011;64868;45.710;9.590;2023-04-01T22:20:41;4.30;;;1.40;;
72949;SDS011;64868;45.710;9.590;2023-04-01T22:23:25;3.92;;;1.15;;
72949;SDS011;64868;45.710;9.590;2023-04-01T22:29:15;3.95;;;1.02;;
72949;SDS011;64868;45.710;9.590;2023-04-01T22:31:44;4.90;;;1.08;;
72949;SDS011;64868;45.710;9.590;2023-04-01T22:37:40;6.00;;;1.23;;
72949;SDS011;64868;45.710;9.590;2023-04-01T22:40:28;3.88;;;1.15;;
72949;SDS011;64868;45.710;9.590;2023-04-01T22:43:12;3.55;;;0.90;;
72949;SDS011;64868;45.710;9.590;2023-04-01T22:48:39;4.10;;;1.00;;
72949;SDS011;64868;45.710;9.590;2023-04-01T22:51:15;4.15;;;1.00;;
72949;SDS011;64868;45.710;9.590;2023-04-01T22:57:02;2.78;;;0.80;;
72949;SDS011;64868;45.710;9.590;2023-04-01T22:59:37;2.13;;;0.70;;
72949;SDS011;64868;45.710;9.590;2023-04-01T23:02:15;3.00;;;0.85;;
72949;SDS011;64868;45.710;9.590;2023-04-01T23:04:48;3.38;;;1.00;;
72949;SDS011;64868;45.710;9.590;2023-04-01T23:10:07;4.03;;;0.88;;
72949;SDS011;64868;45.710;9.590;2023-04-01T23:12:43;3.25;;;0.80;;
72949;SDS011;64868;45.710;9.590;2023-04-01T23:15:15;2.45;;;0.70;;
72949;SDS011;64868;45.710;9.590;2023-04-01T23:18:27;3.03;;;0.90;;
72949;SDS011;64868;45.710;9.590;2023-04-01T23:20:53;2.13;;;0.63;;
72949;SDS011;64868;45.710;9.590;2023-04-01T23:23:52;2.97;;;0.88;;
72949;SDS011;64868;45.710;9.590;2023-04-01T23:26:51;3.53;;;0.88;;
72949;SDS011;64868;45.710;9.590;2023-04-01T23:29:28;3.80;;;0.80;;
72949;SDS011;64868;45.710;9.590;2023-04-01T23:32:05;3.17;;;0.77;;
72949;SDS011;64868;45.710;9.590;2023-04-01T23:34:46;4.10;;;0.90;;
72949;SDS011;64868;45.710;9.590;2023-04-01T23:37:17;3.35;;;0.90;;
72949;SDS011;64868;45.710;9.590;2023-04-01T23:39:49;2.72;;;0.82;;
72949;SDS011;64868;45.710;9.590;2023-04-01T23:42:28;3.38;;;0.90;;
72949;SDS011;64868;45.710;9.590;2023-04-01T23:45:02;3.75;;;1.10;;
72949;SDS011;64868;45.710;9.590;2023-04-01T23:47:42;4.47;;;1.05;;
72949;SDS011;64868;45.710;9.590;2023-04-01T23:50:16;4.78;;;1.00;;
72949;SDS011;64868;45.710;9.590;2023-04-01T23:53:00;2.83;;;0.82;;
72949;SDS011;64868;45.710;9.590;2023-04-01T23:55:33;4.07;;;1.13;;
